sensor_id;sensor_type;location;lat;lon;timestamp;P1;durP1;ratioP1;P2;durP2;ratioP2
13386;SDS011;6763;48.524;9.044;2022-09-09T00:00:17;1.27;;;0.60;;
13386;SDS011;6763;48.524;9.044;2022-09-09T00:03:04;0.50;;;0.50;;
13386;SDS011;6763;48.524;9.044;2022-09-09T00:05:36;0.60;;;0.50;;
13386;SDS011;6763;48.524;9.044;2022-09-09T00:08:13;1.00;;;0.90;;
13386;SDS011;6763;48.524;9.044;2022-09-09T00:10:44;1.00;;;0.60;;
13386;SDS011;6763;48.524;9.044;2022-09-09T00:19:07;0.40;;;0.40;;
13386;SDS011;6763;48.524;9.044;2022-09-09T00:21:38;1.30;;;0.68;;
13386;SDS011;6763;48.524;9.044;2022-09-09T00:27:16;0.50;;;0.50;;
13386;SDS011;6763;48.524;9.044;2022-09-09T00:30:47;0.70;;;0.70;;
13386;SDS011;6763;48.524;9.044;2022-09-09T00:32:44;0.60;;;0.60;;
13386;SDS011;6763;48.524;9.044;2022-09-09T00:37:40;0.65;;;0.65;;
13386;SDS011;6763;48.524;9.044;2022-09-09T00:40:53;2.05;;;0.50;;
13386;SDS011;6763;48.524;9.044;2022-09-09T00:48:58;1.02;;;0.55;;
13386;SDS011;6763;48.524;9.044;2022-09-09T00:59:48;1.10;;;0.60;;
13386;SDS011;6763;48.524;9.044;2022-09-09T01:02:24;0.80;;;0.80;;
13386;SDS011;6763;48.524;9.044;2022-09-09T01:04:57;0.80;;;0.70;;
13386;SDS011;6763;48.524;9.044;2022-09-09T01:07:32;0.60;;;0.60;;
13386;SDS011;6763;48.524;9.044;2022-09-09T01:09:58;0.63;;;0.63;;
13386;SDS011;6763;48.524;9.044;2022-09-09T01:20:12;0.80;;;0.80;;
13386;SDS011;6763;48.524;9.044;2022-09-09T01:26:04;0.57;;;0.57;;
13386;SDS011;6763;48.524;9.044;2022-09-09T01:28:39;0.70;;;0.70;;
13386;SDS011;6763;48.524;9.044;2022-09-09T01:31:06;0.80;;;0.80;;
13386;SDS011;6763;48.524;9.044;2022-09-09T01:33:35;0.65;;;0.65;;
13386;SDS011;6763;48.524;9.044;2022-09-09T01:36:02;0.70;;;0.70;;
13386;SDS011;6763;48.524;9.044;2022-09-09T01:38:33;0.77;;;0.55;;
13386;SDS011;6763;48.524;9.044;2022-09-09T01:41:01;0.52;;;0.52;;
13386;SDS011;6763;48.524;9.044;2022-09-09T01:43:26;0.70;;;0.57;;
13386;SDS011;6763;48.524;9.044;2022-09-09T01:45:53;3.70;;;0.60;;
13386;SDS011;6763;48.524;9.044;2022-09-09T01:48:21;0.70;;;0.70;;
13386;SDS011;6763;48.524;9.044;2022-09-09T01:50:48;0.50;;;0.50;;
13386;SDS011;6763;48.524;9.044;2022-09-09T01:53:14;3.47;;;0.70;;
13386;SDS011;6763;48.524;9.044;2022-09-09T01:55:43;1.95;;;0.70;;
13386;SDS011;6763;48.524;9.044;2022-09-09T02:01:27;1.05;;;0.70;;
13386;SDS011;6763;48.524;9.044;2022-09-09T02:06:57;0.95;;;0.50;;
13386;SDS011;6763;48.524;9.044;2022-09-09T02:09:25;0.55;;;0.52;;
13386;SDS011;6763;48.524;9.044;2022-09-09T02:12:11;1.45;;;0.65;;
13386;SDS011;6763;48.524;9.044;2022-09-09T02:14:43;1.15;;;0.68;;
13386;SDS011;6763;48.524;9.044;2022-09-09T02:17:15;0.70;;;0.70;;
13386;SDS011;6763;48.524;9.044;2022-09-09T02:19:50;0.85;;;0.65;;
13386;SDS011;6763;48.524;9.044;2022-09-09T02:22:23;0.60;;;0.60;;
13386;SDS011;6763;48.524;9.044;2022-09-09T02:24:51;3.08;;;1.35;;
13386;SDS011;6763;48.524;9.044;2022-09-09T02:27:21;1.67;;;1.23;;
13386;SDS011;6763;48.524;9.044;2022-09-09T02:29:48;2.35;;;1.83;;
13386;SDS011;6763;48.524;9.044;2022-09-09T02:32:17;2.17;;;1.50;;
13386;SDS011;6763;48.524;9.044;2022-09-09T02:34:47;2.75;;;1.30;;
13386;SDS011;6763;48.524;9.044;2022-09-09T02:37:17;1.25;;;1.02;;
13386;SDS011;6763;48.524;9.044;2022-09-09T02:39:45;3.10;;;1.25;;
13386;SDS011;6763;48.524;9.044;2022-09-09T02:42:11;2.33;;;1.23;;
13386;SDS011;6763;48.524;9.044;2022-09-09T02:44:39;2.65;;;1.10;;
13386;SDS011;6763;48.524;9.044;2022-09-09T02:52:49;2.20;;;1.20;;
13386;SDS011;6763;48.524;9.044;2022-09-09T02:55:35;1.40;;;1.25;;
13386;SDS011;6763;48.524;9.044;2022-09-09T02:58:23;2.65;;;1.30;;
13386;SDS011;6763;48.524;9.044;2022-09-09T03:00:50;1.00;;;0.90;;
13386;SDS011;6763;48.524;9.044;2022-09-09T03:03:17;1.58;;;1.10;;
13386;SDS011;6763;48.524;9.044;2022-09-09T03:05:44;4.68;;;1.40;;
13386;SDS011;6763;48.524;9.044;2022-09-09T03:08:10;1.85;;;1.02;;
13386;SDS011;6763;48.524;9.044;2022-09-09T03:10:36;4.30;;;1.52;;
13386;SDS011;6763;48.524;9.044;2022-09-09T03:13:02;3.17;;;1.17;;
13386;SDS011;6763;48.524;9.044;2022-09-09T03:15:30;1.55;;;1.17;;
13386;SDS011;6763;48.524;9.044;2022-09-09T03:17:56;2.00;;;1.13;;
13386;SDS011;6763;48.524;9.044;2022-09-09T03:20:23;1.33;;;1.23;;
13386;SDS011;6763;48.524;9.044;2022-09-09T03:22:50;2.72;;;1.25;;
13386;SDS011;6763;48.524;9.044;2022-09-09T03:25:16;1.90;;;1.20;;
13386;SDS011;6763;48.524;9.044;2022-09-09T03:27:41;5.20;;;1.27;;
13386;SDS011;6763;48.524;9.044;2022-09-09T03:30:07;1.77;;;1.42;;
13386;SDS011;6763;48.524;9.044;2022-09-09T03:32:32;4.90;;;1.35;;
13386;SDS011;6763;48.524;9.044;2022-09-09T03:34:58;2.38;;;1.45;;
13386;SDS011;6763;48.524;9.044;2022-09-09T03:37:23;3.70;;;1.15;;
13386;SDS011;6763;48.524;9.044;2022-09-09T03:39:49;1.27;;;1.02;;
13386;SDS011;6763;48.524;9.044;2022-09-09T03:42:15;2.40;;;1.60;;
13386;SDS011;6763;48.524;9.044;2022-09-09T03:44:44;3.65;;;1.20;;
13386;SDS011;6763;48.524;9.044;2022-09-09T03:47:12;5.28;;;1.13;;
13386;SDS011;6763;48.524;9.044;2022-09-09T03:49:37;1.63;;;1.20;;
13386;SDS011;6763;48.524;9.044;2022-09-09T03:52:03;3.17;;;1.40;;
13386;SDS011;6763;48.524;9.044;2022-09-09T03:54:28;2.00;;;1.20;;
13386;SDS011;6763;48.524;9.044;2022-09-09T03:56:53;4.65;;;1.20;;
13386;SDS011;6763;48.524;9.044;2022-09-09T03:59:19;6.40;;;1.30;;
13386;SDS011;6763;48.524;9.044;2022-09-09T04:01:46;1.33;;;1.05;;
13386;SDS011;6763;48.524;9.044;2022-09-09T04:04:12;1.42;;;0.98;;
13386;SDS011;6763;48.524;9.044;2022-09-09T04:06:38;2.22;;;1.10;;
13386;SDS011;6763;48.524;9.044;2022-09-09T04:09:03;6.60;;;1.30;;
13386;SDS011;6763;48.524;9.044;2022-09-09T04:11:28;0.77;;;0.77;;
13386;SDS011;6763;48.524;9.044;2022-09-09T04:13:54;7.10;;;1.10;;
13386;SDS011;6763;48.524;9.044;2022-09-09T04:16:19;1.92;;;1.15;;
13386;SDS011;6763;48.524;9.044;2022-09-09T04:18:45;2.78;;;0.70;;
13386;SDS011;6763;48.524;9.044;2022-09-09T04:21:11;0.82;;;0.52;;
13386;SDS011;6763;48.524;9.044;2022-09-09T04:23:37;0.50;;;0.50;;
13386;SDS011;6763;48.524;9.044;2022-09-09T04:26:03;0.77;;;0.50;;
13386;SDS011;6763;48.524;9.044;2022-09-09T04:28:29;0.70;;;0.60;;
13386;SDS011;6763;48.524;9.044;2022-09-09T04:30:57;0.40;;;0.40;;
13386;SDS011;6763;48.524;9.044;2022-09-09T04:33:29;0.63;;;0.50;;
13386;SDS011;6763;48.524;9.044;2022-09-09T04:35:54;0.40;;;0.40;;
13386;SDS011;6763;48.524;9.044;2022-09-09T04:38:20;1.17;;;0.50;;
13386;SDS011;6763;48.524;9.044;2022-09-09T04:40:47;0.73;;;0.50;;
13386;SDS011;6763;48.524;9.044;2022-09-09T04:43:14;0.63;;;0.63;;
13386;SDS011;6763;48.524;9.044;2022-09-09T04:45:40;0.50;;;0.50;;
13386;SDS011;6763;48.524;9.044;2022-09-09T04:48:06;0.40;;;0.40;;
13386;SDS011;6763;48.524;9.044;2022-09-09T04:50:32;0.40;;;0.40;;
13386;SDS011;6763;48.524;9.044;2022-09-09T04:53:04;0.45;;;0.43;;
13386;SDS011;6763;48.524;9.044;2022-09-09T04:55:30;1.38;;;0.60;;
13386;SDS011;6763;48.524;9.044;2022-09-09T04:57:56;0.40;;;0.40;;
13386;SDS011;6763;48.524;9.044;2022-09-09T05:00:24;0.40;;;0.40;;
13386;SDS011;6763;48.524;9.044;2022-09-09T05:02:50;0.50;;;0.50;;
13386;SDS011;6763;48.524;9.044;2022-09-09T05:05:16;0.60;;;0.60;;
13386;SDS011;6763;48.524;9.044;2022-09-09T05:07:41;1.30;;;0.73;;
13386;SDS011;6763;48.524;9.044;2022-09-09T05:10:07;0.70;;;0.70;;
13386;SDS011;6763;48.524;9.044;2022-09-09T05:12:32;1.00;;;0.60;;
13386;SDS011;6763;48.524;9.044;2022-09-09T05:14:58;0.75;;;0.60;;
13386;SDS011;6763;48.524;9.044;2022-09-09T05:17:23;0.50;;;0.50;;
13386;SDS011;6763;48.524;9.044;2022-09-09T05:19:49;0.57;;;0.57;;
13386;SDS011;6763;48.524;9.044;2022-09-09T05:22:18;0.70;;;0.70;;
13386;SDS011;6763;48.524;9.044;2022-09-09T05:24:47;0.40;;;0.40;;
13386;SDS011;6763;48.524;9.044;2022-09-09T05:27:15;1.08;;;0.60;;
13386;SDS011;6763;48.524;9.044;2022-09-09T05:29:47;0.40;;;0.40;;
13386;SDS011;6763;48.524;9.044;2022-09-09T05:32:12;0.50;;;0.50;;
13386;SDS011;6763;48.524;9.044;2022-09-09T05:34:40;0.85;;;0.60;;
13386;SDS011;6763;48.524;9.044;2022-09-09T05:37:05;0.88;;;0.60;;
13386;SDS011;6763;48.524;9.044;2022-09-09T05:39:31;0.40;;;0.40;;
13386;SDS011;6763;48.524;9.044;2022-09-09T05:41:57;0.40;;;0.40;;
13386;SDS011;6763;48.524;9.044;2022-09-09T05:44:23;0.43;;;0.40;;
13386;SDS011;6763;48.524;9.044;2022-09-09T05:46:52;0.60;;;0.60;;
13386;SDS011;6763;48.524;9.044;2022-09-09T05:49:19;0.55;;;0.55;;
13386;SDS011;6763;48.524;9.044;2022-09-09T05:51:44;0.65;;;0.50;;
13386;SDS011;6763;48.524;9.044;2022-09-09T05:54:09;0.55;;;0.50;;
13386;SDS011;6763;48.524;9.044;2022-09-09T05:56:35;0.32;;;0.32;;
13386;SDS011;6763;48.524;9.044;2022-09-09T05:59:00;0.43;;;0.43;;
13386;SDS011;6763;48.524;9.044;2022-09-09T06:01:27;0.77;;;0.50;;
13386;SDS011;6763;48.524;9.044;2022-09-09T06:03:54;1.95;;;0.70;;
13386;SDS011;6763;48.524;9.044;2022-09-09T06:06:21;0.50;;;0.50;;
13386;SDS011;6763;48.524;9.044;2022-09-09T06:08:48;0.63;;;0.47;;
13386;SDS011;6763;48.524;9.044;2022-09-09T06:11:17;1.27;;;0.50;;
13386;SDS011;6763;48.524;9.044;2022-09-09T06:13:47;0.43;;;0.43;;
13386;SDS011;6763;48.524;9.044;2022-09-09T06:16:16;0.40;;;0.40;;
13386;SDS011;6763;48.524;9.044;2022-09-09T06:18:42;0.43;;;0.43;;
13386;SDS011;6763;48.524;9.044;2022-09-09T06:21:14;0.60;;;0.60;;
13386;SDS011;6763;48.524;9.044;2022-09-09T06:23:42;0.45;;;0.45;;
13386;SDS011;6763;48.524;9.044;2022-09-09T06:26:13;0.68;;;0.68;;
13386;SDS011;6763;48.524;9.044;2022-09-09T06:28:50;1.25;;;0.60;;
13386;SDS011;6763;48.524;9.044;2022-09-09T06:31:18;0.50;;;0.50;;
13386;SDS011;6763;48.524;9.044;2022-09-09T06:33:48;0.60;;;0.60;;
13386;SDS011;6763;48.524;9.044;2022-09-09T06:36:19;0.85;;;0.55;;
13386;SDS011;6763;48.524;9.044;2022-09-09T06:38:46;0.40;;;0.40;;
13386;SDS011;6763;48.524;9.044;2022-09-09T06:41:12;0.50;;;0.50;;
13386;SDS011;6763;48.524;9.044;2022-09-09T06:43:39;0.60;;;0.60;;
13386;SDS011;6763;48.524;9.044;2022-09-09T06:46:06;0.50;;;0.50;;
13386;SDS011;6763;48.524;9.044;2022-09-09T06:48:34;0.40;;;0.40;;
13386;SDS011;6763;48.524;9.044;2022-09-09T06:53:30;0.40;;;0.40;;
13386;SDS011;6763;48.524;9.044;2022-09-09T06:56:00;0.45;;;0.45;;
13386;SDS011;6763;48.524;9.044;2022-09-09T06:58:48;0.55;;;0.40;;
13386;SDS011;6763;48.524;9.044;2022-09-09T07:01:15;0.40;;;0.40;;
13386;SDS011;6763;48.524;9.044;2022-09-09T07:03:42;0.40;;;0.40;;
13386;SDS011;6763;48.524;9.044;2022-09-09T07:06:20;0.43;;;0.38;;
13386;SDS011;6763;48.524;9.044;2022-09-09T07:08:52;0.40;;;0.40;;
13386;SDS011;6763;48.524;9.044;2022-09-09T07:11:20;0.38;;;0.38;;
13386;SDS011;6763;48.524;9.044;2022-09-09T07:13:48;0.50;;;0.50;;
13386;SDS011;6763;48.524;9.044;2022-09-09T07:16:15;0.63;;;0.63;;
13386;SDS011;6763;48.524;9.044;2022-09-09T07:18:42;0.75;;;0.43;;
13386;SDS011;6763;48.524;9.044;2022-09-09T07:21:09;0.30;;;0.30;;
13386;SDS011;6763;48.524;9.044;2022-09-09T07:23:36;0.52;;;0.40;;
13386;SDS011;6763;48.524;9.044;2022-09-09T07:26:06;0.60;;;0.52;;
13386;SDS011;6763;48.524;9.044;2022-09-09T07:28:36;0.30;;;0.30;;
13386;SDS011;6763;48.524;9.044;2022-09-09T07:31:03;1.30;;;0.50;;
13386;SDS011;6763;48.524;9.044;2022-09-09T07:33:30;0.40;;;0.40;;
13386;SDS011;6763;48.524;9.044;2022-09-09T07:36:04;1.88;;;0.60;;
13386;SDS011;6763;48.524;9.044;2022-09-09T07:38:32;0.77;;;0.50;;
13386;SDS011;6763;48.524;9.044;2022-09-09T07:41:03;0.40;;;0.40;;
13386;SDS011;6763;48.524;9.044;2022-09-09T07:43:36;1.42;;;0.57;;
13386;SDS011;6763;48.524;9.044;2022-09-09T07:46:02;0.50;;;0.50;;
13386;SDS011;6763;48.524;9.044;2022-09-09T07:48:28;0.20;;;0.20;;
13386;SDS011;6763;48.524;9.044;2022-09-09T07:51:02;0.30;;;0.30;;
13386;SDS011;6763;48.524;9.044;2022-09-09T07:53:29;0.50;;;0.50;;
13386;SDS011;6763;48.524;9.044;2022-09-09T07:56:01;0.30;;;0.30;;
13386;SDS011;6763;48.524;9.044;2022-09-09T07:58:27;0.47;;;0.47;;
13386;SDS011;6763;48.524;9.044;2022-09-09T08:00:53;0.40;;;0.40;;
13386;SDS011;6763;48.524;9.044;2022-09-09T08:03:18;0.30;;;0.30;;
13386;SDS011;6763;48.524;9.044;2022-09-09T08:05:45;0.30;;;0.30;;
13386;SDS011;6763;48.524;9.044;2022-09-09T08:08:10;1.00;;;0.43;;
13386;SDS011;6763;48.524;9.044;2022-09-09T08:10:35;0.60;;;0.38;;
13386;SDS011;6763;48.524;9.044;2022-09-09T08:13:01;0.30;;;0.30;;
13386;SDS011;6763;48.524;9.044;2022-09-09T08:15:26;0.40;;;0.40;;
13386;SDS011;6763;48.524;9.044;2022-09-09T08:17:52;0.40;;;0.40;;
13386;SDS011;6763;48.524;9.044;2022-09-09T08:20:17;0.25;;;0.25;;
13386;SDS011;6763;48.524;9.044;2022-09-09T08:22:43;0.35;;;0.35;;
13386;SDS011;6763;48.524;9.044;2022-09-09T08:25:08;0.40;;;0.40;;
13386;SDS011;6763;48.524;9.044;2022-09-09T08:27:35;0.30;;;0.30;;
13386;SDS011;6763;48.524;9.044;2022-09-09T08:30:00;0.57;;;0.50;;
13386;SDS011;6763;48.524;9.044;2022-09-09T08:32:26;0.40;;;0.40;;
13386;SDS011;6763;48.524;9.044;2022-09-09T08:34:51;0.32;;;0.32;;
13386;SDS011;6763;48.524;9.044;2022-09-09T08:37:16;0.30;;;0.30;;
13386;SDS011;6763;48.524;9.044;2022-09-09T08:39:41;0.30;;;0.30;;
13386;SDS011;6763;48.524;9.044;2022-09-09T08:42:23;0.30;;;0.30;;
13386;SDS011;6763;48.524;9.044;2022-09-09T08:44:59;0.30;;;0.30;;
13386;SDS011;6763;48.524;9.044;2022-09-09T08:47:39;0.32;;;0.30;;
13386;SDS011;6763;48.524;9.044;2022-09-09T08:52:49;0.47;;;0.47;;
13386;SDS011;6763;48.524;9.044;2022-09-09T08:57:58;0.47;;;0.40;;
13386;SDS011;6763;48.524;9.044;2022-09-09T09:00:37;0.47;;;0.30;;
13386;SDS011;6763;48.524;9.044;2022-09-09T09:03:28;0.30;;;0.30;;
13386;SDS011;6763;48.524;9.044;2022-09-09T09:06:06;0.30;;;0.30;;
13386;SDS011;6763;48.524;9.044;2022-09-09T09:08:57;1.20;;;0.55;;
13386;SDS011;6763;48.524;9.044;2022-09-09T09:11:50;0.20;;;0.20;;
13386;SDS011;6763;48.524;9.044;2022-09-09T09:14:20;0.28;;;0.28;;
13386;SDS011;6763;48.524;9.044;2022-09-09T09:17:00;0.30;;;0.30;;
13386;SDS011;6763;48.524;9.044;2022-09-09T09:19:32;0.40;;;0.40;;
13386;SDS011;6763;48.524;9.044;2022-09-09T09:24:49;0.28;;;0.28;;
13386;SDS011;6763;48.524;9.044;2022-09-09T09:32:44;0.13;;;0.13;;
13386;SDS011;6763;48.524;9.044;2022-09-09T09:35:16;0.30;;;0.30;;
13386;SDS011;6763;48.524;9.044;2022-09-09T09:37:41;0.10;;;0.10;;
13386;SDS011;6763;48.524;9.044;2022-09-09T09:40:12;0.32;;;0.32;;
13386;SDS011;6763;48.524;9.044;2022-09-09T09:42:49;0.22;;;0.22;;
13386;SDS011;6763;48.524;9.044;2022-09-09T09:48:00;0.35;;;0.30;;
13386;SDS011;6763;48.524;9.044;2022-09-09T09:50:28;0.35;;;0.22;;
13386;SDS011;6763;48.524;9.044;2022-09-09T09:52:58;0.45;;;0.30;;
13386;SDS011;6763;48.524;9.044;2022-09-09T09:55:26;0.38;;;0.22;;
13386;SDS011;6763;48.524;9.044;2022-09-09T09:58:05;0.20;;;0.20;;
13386;SDS011;6763;48.524;9.044;2022-09-09T10:00:32;0.22;;;0.22;;
13386;SDS011;6763;48.524;9.044;2022-09-09T10:03:00;0.20;;;0.20;;
13386;SDS011;6763;48.524;9.044;2022-09-09T10:05:27;0.40;;;0.40;;
13386;SDS011;6763;48.524;9.044;2022-09-09T10:21:07;0.52;;;0.20;;
13386;SDS011;6763;48.524;9.044;2022-09-09T10:23:57;0.10;;;0.10;;
13386;SDS011;6763;48.524;9.044;2022-09-09T10:26:48;1.75;;;0.17;;
13386;SDS011;6763;48.524;9.044;2022-09-09T10:29:34;0.20;;;0.20;;
13386;SDS011;6763;48.524;9.044;2022-09-09T10:37:54;0.20;;;0.20;;
13386;SDS011;6763;48.524;9.044;2022-09-09T10:40:42;0.20;;;0.20;;
13386;SDS011;6763;48.524;9.044;2022-09-09T10:57:07;0.28;;;0.28;;
13386;SDS011;6763;48.524;9.044;2022-09-09T10:59:57;0.20;;;0.20;;
13386;SDS011;6763;48.524;9.044;2022-09-09T11:02:29;0.20;;;0.20;;
13386;SDS011;6763;48.524;9.044;2022-09-09T11:07:44;0.10;;;0.10;;
13386;SDS011;6763;48.524;9.044;2022-09-09T11:10:34;0.20;;;0.20;;
13386;SDS011;6763;48.524;9.044;2022-09-09T11:13:29;0.20;;;0.20;;
13386;SDS011;6763;48.524;9.044;2022-09-09T11:18:45;0.10;;;0.10;;
13386;SDS011;6763;48.524;9.044;2022-09-09T11:21:34;0.25;;;0.20;;
13386;SDS011;6763;48.524;9.044;2022-09-09T11:24:06;0.10;;;0.10;;
13386;SDS011;6763;48.524;9.044;2022-09-09T11:26:38;0.22;;;0.22;;
13386;SDS011;6763;48.524;9.044;2022-09-09T11:34:44;0.20;;;0.20;;
13386;SDS011;6763;48.524;9.044;2022-09-09T11:37:22;0.10;;;0.10;;
13386;SDS011;6763;48.524;9.044;2022-09-09T11:43:00;0.08;;;0.08;;
13386;SDS011;6763;48.524;9.044;2022-09-09T11:45:50;0.20;;;0.20;;
13386;SDS011;6763;48.524;9.044;2022-09-09T11:51:01;0.10;;;0.10;;
13386;SDS011;6763;48.524;9.044;2022-09-09T11:56:53;0.10;;;0.10;;
13386;SDS011;6763;48.524;9.044;2022-09-09T12:05:01;0.10;;;0.10;;
13386;SDS011;6763;48.524;9.044;2022-09-09T12:07:38;0.13;;;0.13;;
13386;SDS011;6763;48.524;9.044;2022-09-09T12:10:22;0.20;;;0.20;;
13386;SDS011;6763;48.524;9.044;2022-09-09T12:12:51;0.30;;;0.30;;
13386;SDS011;6763;48.524;9.044;2022-09-09T12:15:25;0.52;;;0.30;;
13386;SDS011;6763;48.524;9.044;2022-09-09T12:17:55;0.20;;;0.20;;
13386;SDS011;6763;48.524;9.044;2022-09-09T12:20:33;0.20;;;0.20;;
13386;SDS011;6763;48.524;9.044;2022-09-09T12:23:15;0.28;;;0.28;;
13386;SDS011;6763;48.524;9.044;2022-09-09T12:36:37;0.20;;;0.20;;
13386;SDS011;6763;48.524;9.044;2022-09-09T12:39:19;0.10;;;0.10;;
13386;SDS011;6763;48.524;9.044;2022-09-09T12:41:52;0.13;;;0.13;;
13386;SDS011;6763;48.524;9.044;2022-09-09T12:44:21;0.20;;;0.20;;
13386;SDS011;6763;48.524;9.044;2022-09-09T12:46:47;0.52;;;0.30;;
13386;SDS011;6763;48.524;9.044;2022-09-09T12:49:27;0.10;;;0.10;;
13386;SDS011;6763;48.524;9.044;2022-09-09T12:51:58;0.28;;;0.28;;
13386;SDS011;6763;48.524;9.044;2022-09-09T12:54:25;0.20;;;0.20;;
13386;SDS011;6763;48.524;9.044;2022-09-09T12:56:51;0.10;;;0.10;;
13386;SDS011;6763;48.524;9.044;2022-09-09T12:59:26;0.35;;;0.32;;
13386;SDS011;6763;48.524;9.044;2022-09-09T13:02:01;0.28;;;0.28;;
13386;SDS011;6763;48.524;9.044;2022-09-09T13:04:26;0.10;;;0.10;;
13386;SDS011;6763;48.524;9.044;2022-09-09T13:06:52;0.20;;;0.20;;
13386;SDS011;6763;48.524;9.044;2022-09-09T13:09:17;0.10;;;0.10;;
13386;SDS011;6763;48.524;9.044;2022-09-09T13:11:53;0.10;;;0.10;;
13386;SDS011;6763;48.524;9.044;2022-09-09T13:14:27;0.10;;;0.10;;
13386;SDS011;6763;48.524;9.044;2022-09-09T13:16:58;0.20;;;0.20;;
13386;SDS011;6763;48.524;9.044;2022-09-09T13:19:26;1.65;;;0.20;;
13386;SDS011;6763;48.524;9.044;2022-09-09T13:21:56;0.30;;;0.30;;
13386;SDS011;6763;48.524;9.044;2022-09-09T13:24:25;0.10;;;0.10;;
13386;SDS011;6763;48.524;9.044;2022-09-09T13:26:57;1.45;;;0.20;;
13386;SDS011;6763;48.524;9.044;2022-09-09T13:29:23;0.20;;;0.20;;
13386;SDS011;6763;48.524;9.044;2022-09-09T13:31:49;0.30;;;0.30;;
13386;SDS011;6763;48.524;9.044;2022-09-09T13:36:52;0.20;;;0.20;;
13386;SDS011;6763;48.524;9.044;2022-09-09T13:39:23;0.10;;;0.10;;
13386;SDS011;6763;48.524;9.044;2022-09-09T13:41:48;0.28;;;0.28;;
13386;SDS011;6763;48.524;9.044;2022-09-09T13:44:14;0.25;;;0.25;;
13386;SDS011;6763;48.524;9.044;2022-09-09T13:46:45;0.10;;;0.10;;
13386;SDS011;6763;48.524;9.044;2022-09-09T13:54:04;0.10;;;0.10;;
13386;SDS011;6763;48.524;9.044;2022-09-09T13:56:31;0.10;;;0.10;;
13386;SDS011;6763;48.524;9.044;2022-09-09T13:58:57;0.10;;;0.10;;
13386;SDS011;6763;48.524;9.044;2022-09-09T14:01:23;0.10;;;0.10;;
13386;SDS011;6763;48.524;9.044;2022-09-09T14:03:48;0.08;;;0.08;;
13386;SDS011;6763;48.524;9.044;2022-09-09T14:06:14;0.52;;;0.30;;
13386;SDS011;6763;48.524;9.044;2022-09-09T14:08:39;0.20;;;0.20;;
13386;SDS011;6763;48.524;9.044;2022-09-09T14:11:05;0.10;;;0.10;;
13386;SDS011;6763;48.524;9.044;2022-09-09T14:13:31;0.35;;;0.20;;
13386;SDS011;6763;48.524;9.044;2022-09-09T14:15:57;0.17;;;0.17;;
13386;SDS011;6763;48.524;9.044;2022-09-09T14:18:22;0.10;;;0.10;;
13386;SDS011;6763;48.524;9.044;2022-09-09T14:20:48;0.70;;;0.35;;
13386;SDS011;6763;48.524;9.044;2022-09-09T14:23:15;0.20;;;0.10;;
13386;SDS011;6763;48.524;9.044;2022-09-09T14:25:41;0.10;;;0.10;;
13386;SDS011;6763;48.524;9.044;2022-09-09T14:28:11;0.10;;;0.10;;
13386;SDS011;6763;48.524;9.044;2022-09-09T14:30:41;0.10;;;0.10;;
13386;SDS011;6763;48.524;9.044;2022-09-09T14:33:08;0.10;;;0.10;;
13386;SDS011;6763;48.524;9.044;2022-09-09T14:35:36;0.10;;;0.10;;
13386;SDS011;6763;48.524;9.044;2022-09-09T14:38:02;0.20;;;0.20;;
13386;SDS011;6763;48.524;9.044;2022-09-09T14:40:28;0.10;;;0.10;;
13386;SDS011;6763;48.524;9.044;2022-09-09T14:42:54;0.10;;;0.10;;
13386;SDS011;6763;48.524;9.044;2022-09-09T14:45:20;0.10;;;0.10;;
13386;SDS011;6763;48.524;9.044;2022-09-09T14:47:46;0.10;;;0.10;;
13386;SDS011;6763;48.524;9.044;2022-09-09T14:50:11;0.10;;;0.10;;
13386;SDS011;6763;48.524;9.044;2022-09-09T14:52:37;0.10;;;0.10;;
13386;SDS011;6763;48.524;9.044;2022-09-09T14:55:03;0.20;;;0.15;;
13386;SDS011;6763;48.524;9.044;2022-09-09T14:57:28;0.22;;;0.20;;
13386;SDS011;6763;48.524;9.044;2022-09-09T14:59:54;0.10;;;0.10;;
13386;SDS011;6763;48.524;9.044;2022-09-09T15:02:19;0.10;;;0.10;;
13386;SDS011;6763;48.524;9.044;2022-09-09T15:04:44;0.10;;;0.10;;
13386;SDS011;6763;48.524;9.044;2022-09-09T15:07:10;0.13;;;0.13;;
13386;SDS011;6763;48.524;9.044;2022-09-09T15:09:36;0.10;;;0.10;;
13386;SDS011;6763;48.524;9.044;2022-09-09T15:12:02;0.43;;;0.20;;
13386;SDS011;6763;48.524;9.044;2022-09-09T15:14:27;0.13;;;0.13;;
13386;SDS011;6763;48.524;9.044;2022-09-09T15:16:53;0.00;;;0.00;;
13386;SDS011;6763;48.524;9.044;2022-09-09T15:19:18;0.10;;;0.10;;
13386;SDS011;6763;48.524;9.044;2022-09-09T15:21:44;0.10;;;0.10;;
13386;SDS011;6763;48.524;9.044;2022-09-09T15:24:09;0.20;;;0.20;;
13386;SDS011;6763;48.524;9.044;2022-09-09T15:26:35;0.10;;;0.10;;
13386;SDS011;6763;48.524;9.044;2022-09-09T15:29:03;0.10;;;0.10;;
13386;SDS011;6763;48.524;9.044;2022-09-09T15:31:29;0.10;;;0.10;;
13386;SDS011;6763;48.524;9.044;2022-09-09T15:34:00;0.10;;;0.10;;
13386;SDS011;6763;48.524;9.044;2022-09-09T15:39:04;0.17;;;0.17;;
13386;SDS011;6763;48.524;9.044;2022-09-09T15:41:31;0.10;;;0.10;;
13386;SDS011;6763;48.524;9.044;2022-09-09T15:43:57;0.20;;;0.20;;
13386;SDS011;6763;48.524;9.044;2022-09-09T15:48:58;0.38;;;0.38;;
13386;SDS011;6763;48.524;9.044;2022-09-09T15:51:34;0.20;;;0.20;;
13386;SDS011;6763;48.524;9.044;2022-09-09T15:54:00;0.10;;;0.10;;
13386;SDS011;6763;48.524;9.044;2022-09-09T15:56:25;0.20;;;0.20;;
13386;SDS011;6763;48.524;9.044;2022-09-09T15:58:53;0.15;;;0.15;;
13386;SDS011;6763;48.524;9.044;2022-09-09T16:01:20;0.10;;;0.10;;
13386;SDS011;6763;48.524;9.044;2022-09-09T16:03:46;0.10;;;0.10;;
13386;SDS011;6763;48.524;9.044;2022-09-09T16:06:12;0.20;;;0.20;;
13386;SDS011;6763;48.524;9.044;2022-09-09T16:08:39;0.20;;;0.20;;
13386;SDS011;6763;48.524;9.044;2022-09-09T16:11:10;0.10;;;0.10;;
13386;SDS011;6763;48.524;9.044;2022-09-09T16:13:37;0.13;;;0.13;;
13386;SDS011;6763;48.524;9.044;2022-09-09T16:16:04;0.10;;;0.10;;
13386;SDS011;6763;48.524;9.044;2022-09-09T16:18:40;0.22;;;0.22;;
13386;SDS011;6763;48.524;9.044;2022-09-09T16:21:14;0.20;;;0.20;;
13386;SDS011;6763;48.524;9.044;2022-09-09T16:23:51;0.75;;;0.20;;
13386;SDS011;6763;48.524;9.044;2022-09-09T16:26:20;0.20;;;0.20;;
13386;SDS011;6763;48.524;9.044;2022-09-09T16:28:46;0.25;;;0.22;;
13386;SDS011;6763;48.524;9.044;2022-09-09T16:31:19;0.20;;;0.20;;
13386;SDS011;6763;48.524;9.044;2022-09-09T16:33:46;0.22;;;0.22;;
13386;SDS011;6763;48.524;9.044;2022-09-09T16:36:14;0.13;;;0.13;;
13386;SDS011;6763;48.524;9.044;2022-09-09T16:38:41;0.30;;;0.30;;
13386;SDS011;6763;48.524;9.044;2022-09-09T16:41:08;0.30;;;0.30;;
13386;SDS011;6763;48.524;9.044;2022-09-09T16:43:35;0.20;;;0.20;;
13386;SDS011;6763;48.524;9.044;2022-09-09T16:46:15;0.20;;;0.20;;
13386;SDS011;6763;48.524;9.044;2022-09-09T16:48:43;0.20;;;0.20;;
13386;SDS011;6763;48.524;9.044;2022-09-09T16:51:20;0.20;;;0.20;;
13386;SDS011;6763;48.524;9.044;2022-09-09T16:53:48;0.55;;;0.30;;
13386;SDS011;6763;48.524;9.044;2022-09-09T16:56:16;0.30;;;0.30;;
13386;SDS011;6763;48.524;9.044;2022-09-09T16:58:44;0.20;;;0.20;;
13386;SDS011;6763;48.524;9.044;2022-09-09T17:01:34;0.30;;;0.30;;
13386;SDS011;6763;48.524;9.044;2022-09-09T17:04:06;0.20;;;0.20;;
13386;SDS011;6763;48.524;9.044;2022-09-09T17:06:34;0.30;;;0.30;;
13386;SDS011;6763;48.524;9.044;2022-09-09T17:09:02;0.20;;;0.20;;
13386;SDS011;6763;48.524;9.044;2022-09-09T17:11:30;0.28;;;0.28;;
13386;SDS011;6763;48.524;9.044;2022-09-09T17:13:56;0.20;;;0.20;;
13386;SDS011;6763;48.524;9.044;2022-09-09T17:16:23;0.25;;;0.20;;
13386;SDS011;6763;48.524;9.044;2022-09-09T17:18:52;0.20;;;0.20;;
13386;SDS011;6763;48.524;9.044;2022-09-09T17:21:19;0.63;;;0.45;;
13386;SDS011;6763;48.524;9.044;2022-09-09T17:23:46;0.35;;;0.30;;
13386;SDS011;6763;48.524;9.044;2022-09-09T17:26:13;0.20;;;0.20;;
13386;SDS011;6763;48.524;9.044;2022-09-09T17:28:40;0.20;;;0.20;;
13386;SDS011;6763;48.524;9.044;2022-09-09T17:31:07;0.20;;;0.20;;
13386;SDS011;6763;48.524;9.044;2022-09-09T17:33:34;0.20;;;0.20;;
13386;SDS011;6763;48.524;9.044;2022-09-09T17:36:04;0.45;;;0.30;;
13386;SDS011;6763;48.524;9.044;2022-09-09T17:38:32;0.20;;;0.20;;
13386;SDS011;6763;48.524;9.044;2022-09-09T17:41:08;0.20;;;0.20;;
13386;SDS011;6763;48.524;9.044;2022-09-09T17:43:44;0.30;;;0.30;;